Jepson Prairie Reserve, California Weather observations

Data are for 10 minute period ending at time listed.
 Day   Time   Solar   Ave.   Ave.  Ave.  Vector  Max.   Baro.   Total    
  of    of     Rad.   Air    Rel.  Wind   Wind   Wind  Press.  Precip.   
Year   Day            Temp.  Hum.  Speed  Dir.   Gust                    
2014   (PST)  Kw/m2    F      %     mph   deg.    mph    mb.     in.     
-------------------------------------------------------------------------
 233   16:10   0.45   87.2    34   17.2   226    27.0   1008.8    0.00 
 233   16:20   0.42   86.9    35   16.9   228    22.5   1008.8    0.00 
 233   16:30   0.39   86.8    36   18.0   227    23.4   1008.8    0.00 
 233   16:40   0.36   85.9    37   18.2   230    23.8   1008.8    0.00 
 233   16:50   0.33   85.5    38   19.2   232    23.6   1008.8    0.00 
 233   17:00   0.30   85.0    39   18.7   225    24.0   1008.8    0.00 
 233   17:10   0.27   84.6    41   17.4   224    21.0   1008.8    0.00 
 233   17:20   0.23   84.0    42   17.5   220    21.8   1008.8    0.00 
 233   17:30   0.20   83.5    43   17.7   219    22.6   1008.5    0.00 
 233   17:40   0.17   82.5    44   18.1   225    22.1   1008.5    0.00 
 233   17:50   0.14   81.9    45   17.2   225    21.3   1008.5    0.00 
 233   18:00   0.11   81.0    46   17.6   222    21.8   1008.5    0.00 
 233   18:10   0.08   79.8    48   17.4   218    21.8   1008.5    0.00 
 233   18:20   0.06   78.9    50   16.4   221    20.9   1008.5    0.00 
 233   18:30   0.04   77.8    52   17.8   225    22.8   1008.5    0.00 
 233   18:40   0.02   76.5    54   18.0   219    23.2   1008.8    0.00 
 233   18:50   0.01   75.5    55   17.5   211    22.1   1008.8    0.00 
 233   19:00   0.00   74.4    57   16.1   209    20.3   1008.8    0.00 
 233   19:10   0.00   73.4    59   16.1   210    20.4   1009.1    0.00 
 233   19:20   0.00   72.6    60   16.9   214    21.2   1009.1    0.00 
 233   19:30   0.00   71.6    62   16.0   213    21.0   1009.1    0.00 
 233   19:40   0.00   71.0    63   15.4   209    20.5   1009.5    0.00 
 233   19:50   0.00   70.6    63   12.6   200    19.4   1009.5    0.00 
 233   20:00   0.00   70.1    65   14.4   208    19.5   1009.5    0.00 
 233   20:10   0.00   69.6    66   17.1   209    21.0   1009.5    0.00 
 233   20:20   0.00   69.3    66   18.0   210    22.4   1009.5    0.00 
 233   20:30   0.00   69.1    66   17.7   214    22.4   1009.5    0.00 
 233   20:40   0.00   68.8    67   17.6   209    22.0   1009.5    0.00 
 233   20:50   0.00   68.6    68   17.8   207    22.1   1009.5    0.00 
 233   21:00   0.00   67.8    71   15.9   204    19.9   1009.5    0.00 
 233   21:10   0.00   67.0    74   17.4   199    21.8   1009.5    0.00 
 233   21:20   0.00   66.8    75   18.3   198    22.4   1009.5    0.00 
 233   21:30   0.00   66.4    76   17.7   198    21.8   1009.5    0.00 
 233   21:40   0.00   66.1    76   17.0   200    21.8   1009.5    0.00 
 233   21:50   0.00   65.9    76   17.7   200    22.4   1009.5    0.00 
 233   22:00   0.00   65.7    76   18.4   202    22.5   1009.5    0.00 
 233   22:10   0.00   65.6    76   19.0   204    24.5   1009.5    0.00 
 233   22:20   0.00   65.5    77   20.0   202    24.0   1009.5    0.00 
 233   22:30   0.00   65.5    76   19.1   203    24.2   1009.5    0.00 
 233   22:40   0.00   65.4    75   19.0   208    23.5   1009.5    0.00 
 233   22:50   0.00   65.2    76   17.7   213    21.3   1009.5    0.00 
 233   23:00   0.00   65.0    76   17.1   207    20.3   1009.5    0.00 
 233   23:10   0.00   64.6    76   15.9   212    19.1   1009.5    0.00 
 233   23:20   0.00   64.5    76   13.0   213    16.1   1009.8    0.00 
 233   23:30   0.00   64.2    77   15.4   212    19.4   1009.8    0.00 
 233   23:40   0.00   63.8    78   15.7   214    21.4   1009.8    0.00 
 233   23:50   0.00   63.5    79   17.5   218    21.6   1009.8    0.00 
 234    0:00   0.00   62.8    80   14.3   215    18.3   1009.8    0.00 
 234    0:10   0.00   62.3    82   15.9   212    19.6   1009.5    0.00 
 234    0:20   0.00   62.2    82   18.0   211    22.6   1009.5    0.00 
 234    0:30   0.00   62.2    82   18.5   219    22.9   1009.5    0.00 
 234    0:40   0.00   62.3    82   21.2   220    26.1   1009.5    0.00 
 234    0:50   0.00   62.2    82   21.3   224    25.6   1009.5    0.00 
 234    1:00   0.00   62.2    82   21.8   222    27.3   1009.5    0.00 
 234    1:10   0.00   62.0    83   21.3   222    27.0   1009.5    0.00 
 234    1:20   0.00   61.6    85   19.9   224    25.4   1009.5    0.00 
 234    1:30   0.00   61.3    85   20.5   226    26.2   1009.5    0.00 
 234    1:40   0.00   61.1    87   22.3   227    27.9   1009.5    0.00 
 234    1:50   0.00   60.9    88   23.1   227    28.4   1009.5    0.00 
 234    2:00   0.00   60.9    88   22.9   230    27.9   1009.5    0.00 
 234    2:10   0.00   61.0    88   22.2   228    27.8   1009.5    0.00 
 234    2:20   0.00   61.0    88   21.9   228    27.0   1009.5    0.00 
 234    2:30   0.00   60.8    88   22.8   229    29.5   1009.5    0.00 
 234    2:40   0.00   60.6    89   22.3   227    27.0   1009.5    0.00 
 234    2:50   0.00   60.5    90   20.3   227    25.9   1009.5    0.00 
 234    3:00   0.00   60.4    90   20.3   228    27.6   1009.5    0.00 
 234    3:10   0.00   60.3    90   20.4   226    25.8   1009.5    0.00 
 234    3:20   0.00   60.2    90   20.9   225    26.7   1009.5    0.00 
 234    3:30   0.00   60.2    91   21.0   224    26.5   1009.5    0.00 
 234    3:40   0.00   60.1    91   20.8   223    27.5   1009.1    0.00 
 234    3:50   0.00   60.0    91   20.3   223    26.2   1009.1    0.00 
 234    4:00   0.00   59.9    92   20.4   222    25.4   1009.1    0.00 
 234    4:10   0.00   59.8    92   19.5   222    25.1   1009.1    0.00 
 234    4:20   0.00   59.6    92   19.6   218    26.2   1009.1    0.00 
 234    4:30   0.00   59.5    92   18.0   214    23.6   1009.5    0.00 
 234    4:40   0.00   59.5    92   15.4   213    21.6   1009.5    0.00 
 234    4:50   0.00   59.3    92   13.9   215    20.5   1009.5    0.00 
 234    5:00   0.00   59.2    91   15.5   215    20.8   1009.5    0.00 
 234    5:10   0.00   58.9    92   15.8   216    20.0   1009.8    0.00 
 234    5:20   0.00   58.6    92   14.5   219    19.4   1009.8    0.00 
 234    5:30   0.00   58.6    92   13.9   224    18.5   1010.2    0.00 
 234    5:40   0.01   58.6    92   15.1   222    19.6   1010.2    0.00 
 234    5:50   0.03   58.7    92   16.0   221    20.2   1010.2    0.00 
 234    6:00   0.05   59.0    92   17.2   222    21.3   1010.2    0.00 
 234    6:10   0.07   59.4    91   16.2   218    20.0   1010.2    0.00 
 234    6:20   0.10   60.0    90   15.9   213    22.0   1010.5    0.00 
 234    6:30   0.12   60.5    88   18.0   219    24.2   1010.2    0.00 
 234    6:40   0.15   60.3    87   21.2   216    27.2   1010.2    0.00 
 234    6:50   0.18   60.8    86   23.8   215    28.4   1010.2    0.00 
 234    7:00   0.21   61.2    84   23.6   214    29.5   1010.2    0.00 
 234    7:10   0.24   61.5    83   21.8   218    27.9   1010.5    0.00 
 234    7:20   0.28   62.1    82   20.5   217    25.2   1010.5    0.00 
 234    7:30   0.31   62.8    80   18.7   217    23.8   1010.5    0.00 
 234    7:40   0.34   63.8    78   19.4   213    24.5   1010.5    0.00 
 234    7:50   0.38   64.7    75   20.1   215    25.7   1010.5    0.00 
 234    8:00   0.41   65.2    72   22.0   218    28.1   1010.5    0.00 
 234    8:10   0.44   65.2    72   23.4   219    28.1   1010.2    0.00 
 234    8:20   0.47   65.7    71   21.1   220    26.7   1010.5    0.00 
 234    8:30   0.50   66.1    70   22.2   223    27.5   1010.5    0.00 
 234    8:40   0.53   66.2    69   22.6   214    27.2   1010.5    0.00 
 234    8:50   0.56   67.0    68   21.3   217    27.5   1010.5    0.00 
 234    9:00   0.59   67.9    66   21.8   220    27.3   1010.5    0.00 
 234    9:10   0.61   68.5    65   21.3   218    26.7   1010.5    0.00 
 234    9:20   0.64   69.4    63   22.1   216    26.5   1010.5    0.00 
 234    9:30   0.67   69.8    63   20.8   221    26.4   1010.5    0.00 
 234    9:40   0.69   70.1    62   20.9   220    26.7   1010.5    0.00 
 234    9:50   0.71   70.9    60   19.9   216    26.2   1010.5    0.00 
 234   10:00   0.73   71.5    59   20.6   217    25.6   1010.5    0.00 
 234   10:10   0.75   72.6    56   21.0   220    30.2   1010.5    0.00 
 234   10:20   0.77   72.9    55   21.3   220    26.5   1010.5    0.00 
 234   10:30   0.79   72.7    56   22.6   219    28.0   1010.5    0.00 
 234   10:40   0.81   73.0    55   21.3   216    26.4   1010.2    0.00 
 234   10:50   0.82   74.2    52   20.8   215    27.0   1010.2    0.00 
 234   11:00   0.83   74.3    51   21.6   214    26.9   1009.8    0.00 
 234   11:10   0.84   74.8    50   20.8   216    27.0   1009.8    0.00 
 234   11:20   0.86   75.7    49   21.0   215    27.2   1009.8    0.00 
 234   11:30   0.86   76.3    48   19.8   218    25.7   1009.8    0.00 
 234   11:40   0.87   77.0    47   20.6   221    26.5   1009.5    0.00 
 234   11:50   0.87   76.7    47   20.3   221    29.2   1009.5    0.00 
 234   12:00   0.87   78.2    46   19.2   219    23.8   1009.5    0.00 
 234   12:10   0.88   78.1    45   20.1   220    25.6   1009.1    0.00 
 234   12:20   0.89   78.6    44   20.2   228    23.7   1008.8    0.00 
 234   12:30   0.88   79.4    44   20.5   218    25.3   1008.8    0.00 
 234   12:40   0.87   80.0    43   19.4   216    25.1   1008.8    0.00 
 234   12:50   0.87   79.8    43   18.8   223    23.2   1008.5    0.00 
 234   13:00   0.86   80.7    42   18.7   214    27.9   1008.5    0.00 
 234   13:10   0.86   81.0    42   18.3   219    23.5   1008.5    0.00 
 234   13:20   0.85   81.9    41   18.8   218    24.7   1008.1    0.00 
 234   13:30   0.84   82.2    41   19.0   219    25.6   1008.1    0.00 
 234   13:40   0.82   81.7    42   20.6   222    25.4   1008.1    0.00 
 234   13:50   0.81   82.0    41   19.4   216    24.8   1007.8    0.00 
 234   14:00   0.80   82.1    41   21.5   216    25.9   1007.8    0.00 
 234   14:10   0.77   82.4    41   20.9   217    27.1   1007.8    0.00 
 234   14:20   0.76   82.9    41   21.4   217    27.2   1007.5    0.00 
 234   14:30   0.73   82.7    41   22.2   214    27.6   1007.5    0.00 
 234   14:40   0.71   83.2    41   22.9   215    28.9   1007.5    0.00 
 234   14:50   0.69   82.9    42   23.7   218    29.5   1007.5    0.00 
 234   15:00   0.66   82.6    42   24.6   216    32.2   1007.5    0.00 
 234   15:10   0.63   82.6    42   23.7   212    31.0   1007.5    0.00 
 234   15:20   0.61   82.3    43   24.7   210    30.5   1007.5    0.00 
 234   15:30   0.58   82.2    42   24.1   214    29.7   1007.1    0.00 
 234   15:40   0.55   81.2    44   24.7   218    30.8   1007.5    0.00 
 234   15:50   0.53   81.2    43   22.6   221    29.9   1007.5    0.00 
 234   16:00   0.50   80.6    44   23.8   224    29.7   1007.5    0.00 

Return to Jepson Prairie Reserve graphs page.


Western Regional Climate Center,wrcc@dri.edu